createdAt,value
2022-10-18T00:00:46.196Z,12.98
2022-10-18T00:03:12.508Z,12.97
2022-10-18T00:05:38.916Z,12.94
2022-10-18T00:08:05.381Z,12.96
2022-10-18T00:10:31.759Z,12.99
2022-10-18T00:12:58.095Z,13.00
2022-10-18T00:15:24.581Z,13.02
2022-10-18T00:17:50.893Z,13.03
2022-10-18T00:20:17.204Z,13.02
2022-10-18T00:22:43.536Z,13.03
2022-10-18T00:25:10.450Z,13.05
2022-10-18T00:27:37.267Z,13.07
2022-10-18T00:30:05.005Z,13.10
2022-10-18T00:32:31.583Z,13.10
2022-10-18T00:34:58.207Z,13.12
2022-10-18T00:37:24.583Z,13.11
2022-10-18T00:42:25.104Z,13.10
2022-10-18T00:44:51.391Z,13.11
2022-10-18T00:47:18.756Z,13.09
2022-10-18T00:49:53.091Z,13.08
2022-10-18T00:52:24.136Z,13.07
2022-10-18T00:54:52.071Z,13.06
2022-10-18T00:57:18.712Z,13.08
2022-10-18T00:59:46.510Z,13.08
2022-10-18T01:02:14.956Z,13.07
2022-10-18T01:04:41.488Z,13.06
2022-10-18T01:07:18.744Z,13.03
2022-10-18T01:10:08.259Z,13.00
2022-10-18T01:13:02.555Z,12.97
2022-10-18T01:15:33.899Z,12.94
2022-10-18T01:18:20.869Z,12.91
2022-10-18T01:21:11.267Z,12.92
2022-10-18T01:23:59.509Z,12.91
2022-10-18T01:26:41.036Z,12.92
2022-10-18T01:29:26.652Z,12.86
2022-10-18T01:32:10.571Z,12.84
2022-10-18T01:34:40.429Z,12.84
2022-10-18T01:37:09.274Z,12.80
2022-10-18T01:39:39.251Z,12.80
2022-10-18T01:42:09.750Z,12.80
2022-10-18T01:44:38.832Z,12.80
2022-10-18T01:47:07.530Z,12.83
2022-10-18T01:49:34.496Z,12.80
2022-10-18T01:52:00.960Z,12.80
2022-10-18T01:54:35.047Z,12.80
2022-10-18T01:57:19.464Z,12.78
2022-10-18T01:59:54.798Z,12.79
2022-10-18T02:02:30.611Z,12.80
2022-10-18T02:05:18.604Z,12.78
2022-10-18T02:08:24.346Z,12.77
2022-10-18T02:11:12.363Z,12.78
2022-10-18T02:13:43.236Z,12.76
2022-10-18T02:16:15.687Z,12.72
2022-10-18T02:18:48.667Z,12.71
2022-10-18T02:21:19.192Z,12.68
2022-10-18T02:23:46.949Z,12.68
2022-10-18T02:26:16.888Z,12.67
2022-10-18T02:28:44.056Z,12.68
2022-10-18T02:31:18.781Z,12.66
2022-10-18T02:33:56.843Z,12.64
2022-10-18T02:36:36.259Z,12.58
2022-10-18T02:39:11.940Z,12.54
2022-10-18T02:41:38.496Z,12.49
2022-10-18T02:44:04.902Z,12.45
2022-10-18T02:46:31.422Z,12.43
2022-10-18T02:48:57.754Z,12.38
2022-10-18T02:51:25.113Z,12.36
2022-10-18T02:53:51.680Z,12.36
2022-10-18T02:56:18.058Z,12.34
2022-10-18T02:58:44.429Z,12.30
2022-10-18T03:01:10.804Z,12.28
2022-10-18T03:03:37.181Z,12.24
2022-10-18T03:06:03.665Z,12.21
2022-10-18T03:08:30.043Z,12.20
2022-10-18T03:10:56.386Z,12.16
2022-10-18T03:13:22.791Z,12.11
2022-10-18T03:15:49.209Z,12.09
2022-10-18T03:18:15.780Z,12.06
2022-10-18T03:20:42.229Z,12.03
2022-10-18T03:23:09.137Z,11.98
2022-10-18T03:25:35.491Z,11.96
2022-10-18T03:28:01.838Z,11.93
2022-10-18T03:30:28.235Z,11.89
2022-10-18T03:32:54.635Z,11.85
2022-10-18T03:35:21.209Z,11.77
2022-10-18T03:37:47.604Z,11.72
2022-10-18T03:40:13.971Z,11.71
2022-10-18T03:42:40.441Z,11.68
2022-10-18T03:45:07.452Z,11.63
2022-10-18T03:47:33.989Z,11.59
2022-10-18T03:50:00.549Z,11.57
2022-10-18T03:52:26.881Z,11.57
2022-10-18T03:54:53.269Z,11.54
2022-10-18T03:57:19.635Z,11.48
2022-10-18T03:59:45.963Z,11.45
2022-10-18T04:02:12.340Z,11.42
2022-10-18T04:04:38.694Z,11.40
2022-10-18T04:07:05.044Z,11.37
2022-10-18T04:09:31.414Z,11.34
2022-10-18T04:11:57.741Z,11.27
2022-10-18T04:14:24.068Z,11.21
2022-10-18T04:16:50.445Z,11.19
2022-10-18T04:19:17.016Z,11.16
2022-10-18T04:21:43.343Z,11.15
2022-10-18T04:24:09.651Z,11.11
2022-10-18T04:26:35.980Z,11.08
2022-10-18T04:29:02.491Z,11.05
2022-10-18T04:31:28.923Z,11.01
2022-10-18T04:33:55.347Z,10.99
2022-10-18T04:36:21.741Z,10.96
2022-10-18T04:38:48.083Z,10.90
2022-10-18T04:41:14.402Z,10.88
2022-10-18T04:43:40.761Z,10.85
2022-10-18T04:46:07.141Z,10.82
2022-10-18T04:48:33.493Z,10.81
2022-10-18T04:50:59.893Z,10.80
2022-10-18T04:53:26.225Z,10.78
2022-10-18T04:55:52.632Z,10.74
2022-10-18T04:58:19.179Z,10.66
2022-10-18T05:00:47.554Z,10.61
2022-10-18T05:03:14.617Z,10.58
2022-10-18T05:06:00.332Z,10.61
2022-10-18T05:08:27.657Z,10.63
2022-10-18T05:10:54.090Z,10.61
2022-10-18T05:13:20.433Z,10.61
2022-10-18T05:15:47.468Z,10.51
2022-10-18T05:18:13.883Z,10.45
2022-10-18T05:20:40.206Z,10.42
2022-10-18T05:23:06.546Z,10.39
2022-10-18T05:25:32.892Z,10.35
2022-10-18T05:28:03.430Z,10.28
2022-10-18T05:30:39.052Z,10.24
2022-10-18T05:33:05.786Z,10.23
2022-10-18T05:35:32.140Z,10.22
2022-10-18T05:37:58.489Z,10.22
2022-10-18T05:40:24.862Z,10.26
2022-10-18T05:42:54.043Z,10.28
2022-10-18T05:45:20.402Z,10.32
2022-10-18T05:47:46.843Z,10.35
2022-10-18T05:50:14.860Z,10.33
2022-10-18T05:52:41.283Z,10.33
2022-10-18T05:55:07.949Z,10.30
2022-10-18T05:57:34.725Z,10.33
2022-10-18T06:00:01.284Z,10.31
2022-10-18T06:02:27.651Z,10.31
2022-10-18T06:04:53.998Z,10.33
2022-10-18T06:07:20.307Z,10.36
2022-10-18T06:09:46.607Z,10.35
2022-10-18T06:12:13.191Z,10.36
2022-10-18T06:14:39.624Z,10.41
2022-10-18T06:17:06.010Z,10.47
2022-10-18T06:19:32.330Z,10.48
2022-10-18T06:21:58.648Z,10.49
2022-10-18T06:24:25.164Z,10.51
2022-10-18T06:26:51.520Z,10.55
2022-10-18T06:29:17.909Z,10.57
2022-10-18T06:31:44.254Z,10.60
2022-10-18T06:34:10.566Z,10.61
2022-10-18T06:36:36.913Z,10.65
2022-10-18T06:39:03.341Z,10.66
2022-10-18T06:41:29.664Z,10.69
2022-10-18T06:43:57.680Z,10.70
2022-10-18T06:46:25.726Z,10.71
2022-10-18T06:48:52.124Z,10.73
2022-10-18T06:51:18.590Z,10.79
2022-10-18T06:54:05.819Z,10.84
2022-10-18T06:56:31.581Z,10.89
2022-10-18T07:01:25.267Z,10.97
2022-10-18T07:03:53.345Z,11.01
2022-10-18T07:06:20.450Z,11.05
2022-10-18T07:08:48.190Z,11.06
2022-10-18T07:11:20.295Z,11.07
2022-10-18T07:13:46.752Z,11.11
2022-10-18T07:16:18.244Z,11.16
2022-10-18T07:18:50.769Z,11.19
2022-10-18T07:21:19.963Z,11.22
2022-10-18T07:23:47.280Z,11.25
2022-10-18T07:26:15.198Z,11.27
2022-10-18T07:28:42.694Z,11.31
2022-10-18T07:31:10.487Z,11.33
2022-10-18T07:33:39.819Z,11.35
2022-10-18T07:36:08.336Z,11.37
2022-10-18T07:38:35.651Z,11.38
2022-10-18T07:41:04.203Z,11.39
2022-10-18T07:43:30.760Z,11.42
2022-10-18T07:46:00.201Z,11.46
2022-10-18T07:48:27.090Z,11.53
2022-10-18T07:50:53.876Z,11.60
2022-10-18T07:53:20.545Z,11.70
2022-10-18T07:55:46.861Z,11.78
2022-10-18T07:58:13.239Z,11.89
2022-10-18T08:00:40.037Z,12.00
2022-10-18T08:03:06.748Z,12.11
2022-10-18T08:08:07.889Z,12.41
2022-10-18T08:10:36.181Z,12.56
2022-10-18T08:13:02.499Z,12.68
2022-10-18T08:15:28.802Z,12.81
2022-10-18T08:17:55.118Z,12.99
2022-10-18T08:20:30.273Z,13.21
2022-10-18T08:23:00.158Z,13.46
2022-10-18T08:25:27.410Z,13.68
2022-10-18T08:27:53.780Z,14.11
2022-10-18T08:30:20.261Z,15.03
2022-10-18T08:32:46.573Z,15.42
2022-10-18T08:35:12.874Z,15.37
2022-10-18T08:37:40.213Z,15.30
2022-10-18T08:40:07.147Z,15.33
2022-10-18T08:43:00.346Z,15.43
2022-10-18T08:45:41.900Z,15.46
2022-10-18T08:48:21.631Z,15.41
2022-10-18T08:50:49.629Z,15.48
2022-10-18T08:53:49.152Z,15.61
2022-10-18T08:56:18.768Z,15.73
2022-10-18T08:58:45.200Z,15.86
2022-10-18T09:01:17.459Z,16.22
2022-10-18T09:04:08.454Z,18.10
2022-10-18T09:07:04.769Z,19.19
2022-10-18T09:09:56.036Z,19.97
2022-10-18T09:12:50.200Z,20.56
2022-10-18T09:15:44.499Z,21.12
2022-10-18T09:18:41.660Z,21.82
2022-10-18T09:21:26.965Z,22.53
2022-10-18T09:24:02.548Z,22.58
2022-10-18T09:26:39.198Z,22.98
2022-10-18T09:29:39.483Z,21.98
2022-10-18T09:32:21.114Z,21.00
2022-10-18T09:34:58.082Z,20.52
2022-10-18T09:37:28.297Z,20.34
2022-10-18T09:40:19.496Z,20.26
2022-10-18T09:43:08.029Z,20.29
2022-10-18T09:45:40.054Z,20.13
2022-10-18T09:48:23.946Z,20.08
2022-10-18T09:51:04.637Z,19.88
2022-10-18T09:53:58.554Z,20.09
2022-10-18T09:56:36.684Z,20.08
2022-10-18T09:59:19.383Z,20.24
2022-10-18T10:01:45.822Z,20.34
2022-10-18T10:04:12.192Z,20.41
2022-10-18T10:06:49.037Z,20.34
2022-10-18T10:09:17.921Z,20.23
2022-10-18T10:11:49.148Z,20.31
2022-10-18T10:14:19.322Z,20.35
2022-10-18T10:16:53.073Z,20.29
2022-10-18T10:19:24.183Z,20.27
2022-10-18T10:21:55.061Z,20.33
2022-10-18T10:24:28.927Z,20.32
2022-10-18T10:27:03.277Z,20.33
2022-10-18T10:29:48.068Z,20.44
2022-10-18T10:32:19.607Z,20.31
2022-10-18T10:34:46.731Z,20.32
2022-10-18T10:37:35.005Z,20.40
2022-10-18T10:40:18.347Z,20.59
2022-10-18T10:42:54.539Z,20.65
2022-10-18T10:45:29.525Z,20.58
2022-10-18T10:48:04.557Z,20.62
2022-10-18T10:50:31.468Z,20.55
2022-10-18T10:52:58.630Z,20.59
2022-10-18T10:55:35.785Z,20.50
2022-10-18T10:58:02.487Z,20.42
2022-10-18T11:00:47.043Z,20.48
2022-10-18T11:03:34.535Z,20.68
2022-10-18T11:06:01.756Z,20.87
2022-10-18T11:08:41.330Z,21.37
2022-10-18T11:11:27.739Z,22.01
2022-10-18T11:14:26.182Z,22.39
2022-10-18T11:17:06.977Z,22.58
2022-10-18T11:20:01.229Z,22.60
2022-10-18T11:22:35.038Z,22.81
2022-10-18T11:25:03.918Z,22.94
2022-10-18T11:27:48.900Z,23.03
2022-10-18T11:30:36.724Z,23.21
2022-10-18T11:33:11.902Z,23.33
2022-10-18T11:35:47.342Z,23.46
2022-10-18T11:38:33.596Z,23.60
2022-10-18T11:41:06.753Z,23.58
2022-10-18T11:44:03.135Z,23.40
2022-10-18T11:46:57.213Z,23.17
2022-10-18T11:49:26.176Z,23.16
2022-10-18T11:52:22.489Z,22.84
2022-10-18T11:55:00.258Z,22.70
2022-10-18T11:57:36.086Z,22.77
2022-10-18T12:03:19.530Z,22.56
2022-10-18T12:05:48.412Z,22.61
2022-10-18T12:08:38.722Z,22.78
2022-10-18T12:11:14.377Z,22.92
2022-10-18T12:13:44.230Z,23.02
2022-10-18T12:16:12.204Z,23.25
2022-10-18T12:21:25.930Z,23.48
2022-10-18T12:24:05.936Z,23.55
2022-10-18T12:26:34.987Z,23.79
2022-10-18T12:29:39.918Z,23.96
2022-10-18T12:32:13.013Z,24.18
2022-10-18T12:35:03.229Z,24.26
2022-10-18T12:37:51.223Z,24.64
2022-10-18T12:40:23.324Z,24.86
2022-10-18T12:42:52.020Z,24.81
2022-10-18T12:45:46.239Z,24.58
2022-10-18T12:48:35.230Z,24.12
2022-10-18T12:51:18.559Z,23.62
2022-10-18T12:53:47.598Z,23.55
2022-10-18T12:56:29.131Z,23.27
2022-10-18T12:59:18.612Z,23.09
2022-10-18T13:01:51.324Z,23.16
2022-10-18T13:04:32.358Z,23.12
2022-10-18T13:06:59.653Z,23.11
2022-10-18T13:09:48.185Z,23.24
2022-10-18T13:12:14.451Z,23.13
2022-10-18T13:15:27.695Z,23.26
2022-10-18T13:18:26.753Z,23.24
2022-10-18T13:21:09.680Z,23.29
2022-10-18T13:23:38.059Z,23.16
2022-10-18T13:26:32.160Z,23.11
2022-10-18T13:29:27.926Z,23.00
2022-10-18T13:34:46.707Z,22.83
2022-10-18T13:37:13.887Z,22.85
2022-10-18T13:39:40.363Z,22.80
2022-10-18T13:42:12.664Z,22.81
2022-10-18T13:44:40.089Z,22.85
2022-10-18T13:47:06.901Z,22.87
2022-10-18T13:49:39.452Z,23.07
2022-10-18T13:52:25.804Z,22.94
2022-10-18T13:55:26.421Z,22.62
2022-10-18T13:57:55.534Z,22.64
2022-10-18T14:00:59.552Z,22.80
2022-10-18T14:03:57.002Z,23.72
2022-10-18T14:06:28.694Z,24.48
2022-10-18T14:09:09.513Z,24.76
2022-10-18T14:11:53.629Z,25.20
2022-10-18T14:14:34.289Z,25.18
2022-10-18T14:17:28.119Z,25.31
2022-10-18T14:20:01.439Z,24.53
2022-10-18T14:22:34.465Z,23.29
2022-10-18T14:25:01.123Z,22.83
2022-10-18T14:27:32.951Z,22.57
2022-10-18T14:30:20.164Z,22.27
2022-10-18T14:32:54.393Z,22.17
2022-10-18T14:35:38.908Z,21.85
2022-10-18T14:38:06.225Z,21.95
2022-10-18T14:40:40.061Z,22.42
2022-10-18T14:43:12.323Z,22.73
2022-10-18T14:45:39.417Z,22.42
2022-10-18T14:48:18.072Z,21.75
2022-10-18T14:50:47.121Z,21.38
2022-10-18T14:53:22.005Z,21.05
2022-10-18T14:55:57.797Z,20.76
2022-10-18T14:58:24.268Z,20.67
2022-10-18T15:00:50.749Z,20.54
2022-10-18T15:03:18.721Z,20.41
2022-10-18T15:05:59.400Z,20.23
2022-10-18T15:08:38.517Z,20.15
2022-10-18T15:11:10.477Z,19.96
2022-10-18T15:13:48.039Z,19.66
2022-10-18T15:16:18.362Z,19.42
2022-10-18T15:18:58.961Z,19.30
2022-10-18T15:21:25.468Z,19.19
2022-10-18T15:23:54.115Z,19.08
2022-10-18T15:26:29.901Z,18.91
2022-10-18T15:29:01.434Z,18.73
2022-10-18T15:31:35.965Z,18.54
2022-10-18T15:34:30.158Z,18.36
2022-10-18T15:36:57.087Z,18.27
2022-10-18T15:39:26.336Z,18.33
2022-10-18T15:41:59.184Z,18.15
2022-10-18T15:44:31.988Z,17.90
2022-10-18T15:47:13.634Z,17.79
2022-10-18T15:49:46.212Z,17.61
2022-10-18T15:52:21.828Z,17.53
2022-10-18T15:57:20.452Z,17.28
2022-10-18T16:00:00.482Z,17.16
2022-10-18T16:02:26.892Z,17.13
2022-10-18T16:04:53.596Z,17.02
2022-10-18T16:07:20.292Z,16.96
2022-10-18T16:09:46.679Z,16.90
2022-10-18T16:12:13.015Z,16.88
2022-10-18T16:14:39.479Z,16.74
2022-10-18T16:17:07.162Z,16.72
2022-10-18T16:19:33.919Z,16.68
2022-10-18T16:22:06.089Z,16.60
2022-10-18T16:24:33.180Z,16.52
2022-10-18T16:26:59.535Z,16.36
2022-10-18T16:29:28.441Z,16.32
2022-10-18T16:31:57.888Z,16.19
2022-10-18T16:34:26.880Z,16.07
2022-10-18T16:36:54.067Z,15.97
2022-10-18T16:39:21.721Z,15.86
2022-10-18T16:41:48.804Z,15.76
2022-10-18T16:44:16.398Z,15.64
2022-10-18T16:46:43.305Z,15.57
2022-10-18T16:51:46.847Z,15.35
2022-10-18T16:54:13.295Z,15.23
2022-10-18T16:56:40.157Z,15.10
2022-10-18T16:59:07.016Z,14.99
2022-10-18T17:01:33.438Z,14.86
2022-10-18T17:03:59.800Z,14.76
2022-10-18T17:06:29.365Z,14.65
2022-10-18T17:08:56.943Z,14.59
2022-10-18T17:11:25.297Z,14.47
2022-10-18T17:13:51.976Z,14.40
2022-10-18T17:16:33.104Z,14.31
2022-10-18T17:19:02.094Z,14.28
2022-10-18T17:21:29.214Z,14.22
2022-10-18T17:24:00.430Z,14.14
2022-10-18T17:26:29.356Z,14.04
2022-10-18T17:28:59.296Z,13.94
2022-10-18T17:31:25.718Z,13.83
2022-10-18T17:33:54.596Z,13.69
2022-10-18T17:36:21.777Z,13.57
2022-10-18T17:38:52.891Z,13.50
2022-10-18T17:41:19.386Z,13.47
2022-10-18T17:43:45.720Z,13.40
2022-10-18T17:46:12.969Z,13.31
2022-10-18T17:48:39.339Z,13.21
2022-10-18T17:51:10.688Z,13.14
2022-10-18T17:53:37.226Z,13.09
2022-10-18T17:56:04.664Z,13.05
2022-10-18T17:58:31.577Z,12.92
2022-10-18T18:01:07.541Z,12.85
2022-10-18T18:03:33.925Z,12.77
2022-10-18T18:06:00.300Z,12.68
2022-10-18T18:08:26.818Z,12.58
2022-10-18T18:10:55.889Z,12.47
2022-10-18T18:13:22.247Z,12.38
2022-10-18T18:15:48.568Z,12.27
2022-10-18T18:18:15.011Z,12.15
2022-10-18T18:20:41.387Z,12.05
2022-10-18T18:23:07.700Z,11.95
2022-10-18T18:25:34.058Z,11.89
2022-10-18T18:28:06.672Z,11.91
2022-10-18T18:30:33.870Z,11.90
2022-10-18T18:33:00.185Z,11.86
2022-10-18T18:35:26.528Z,11.82
2022-10-18T18:37:52.886Z,11.78
2022-10-18T18:40:19.289Z,11.74
2022-10-18T18:42:56.793Z,11.69
2022-10-18T18:45:31.948Z,11.65
2022-10-18T18:47:58.280Z,11.58
2022-10-18T18:50:24.584Z,11.56
2022-10-18T18:52:50.899Z,11.50
2022-10-18T18:55:17.378Z,11.47
2022-10-18T18:57:43.718Z,11.31
2022-10-18T19:00:12.539Z,11.21
2022-10-18T19:02:38.858Z,11.05
2022-10-18T19:05:05.494Z,11.04
2022-10-18T19:07:32.252Z,11.01
2022-10-18T19:09:58.854Z,10.96
2022-10-18T19:12:25.214Z,10.93
2022-10-18T19:14:51.537Z,10.81
2022-10-18T19:17:17.924Z,10.77
2022-10-18T19:19:44.301Z,10.67
2022-10-18T19:22:11.048Z,10.57
2022-10-18T19:24:37.478Z,10.47
2022-10-18T19:27:09.520Z,10.41
2022-10-18T19:29:37.949Z,10.36
2022-10-18T19:32:07.221Z,10.36
2022-10-18T19:34:34.564Z,10.24
2022-10-18T19:37:01.545Z,10.23
2022-10-18T19:39:33.550Z,10.22
2022-10-18T19:42:03.227Z,10.15
2022-10-18T19:44:31.721Z,10.08
2022-10-18T19:46:58.509Z,10.03
2022-10-18T19:49:25.504Z,10.01
2022-10-18T19:51:52.141Z,10.01
2022-10-18T19:54:18.614Z,9.97
2022-10-18T19:56:45.236Z,9.88
2022-10-18T19:59:13.171Z,9.82
2022-10-18T20:01:39.800Z,9.72
2022-10-18T20:04:08.264Z,9.62
2022-10-18T20:06:36.433Z,9.52
2022-10-18T20:09:03.363Z,9.49
2022-10-18T20:11:30.177Z,9.48
2022-10-18T20:13:57.087Z,9.50
2022-10-18T20:16:28.457Z,9.49
2022-10-18T20:19:07.266Z,9.45
2022-10-18T20:21:36.941Z,9.43
2022-10-18T20:24:04.659Z,9.41
2022-10-18T20:26:31.708Z,9.31
2022-10-18T20:28:59.622Z,9.25
2022-10-18T20:31:31.807Z,9.20
2022-10-18T20:34:00.390Z,9.15
2022-10-18T20:36:28.311Z,9.13
2022-10-18T20:38:55.075Z,9.12
2022-10-18T20:41:26.987Z,9.08
2022-10-18T20:43:58.907Z,9.03
2022-10-18T20:46:26.812Z,8.98
2022-10-18T20:48:53.888Z,8.99
2022-10-18T20:51:21.686Z,8.94
2022-10-18T20:53:48.660Z,8.92
2022-10-18T20:56:17.797Z,8.85
2022-10-18T20:58:44.877Z,8.82
2022-10-18T21:01:17.275Z,8.79
2022-10-18T21:03:45.732Z,8.75
2022-10-18T21:06:17.373Z,8.69
2022-10-18T21:08:44.100Z,8.66
2022-10-18T21:11:12.016Z,8.61
2022-10-18T21:13:38.532Z,8.57
2022-10-18T21:16:05.947Z,8.55
2022-10-18T21:18:34.260Z,8.50
2022-10-18T21:23:39.636Z,8.35
2022-10-18T21:26:06.709Z,8.29
2022-10-18T21:28:33.246Z,8.26
2022-10-18T21:31:12.517Z,8.22
2022-10-18T21:33:40.188Z,8.16
2022-10-18T21:36:06.728Z,8.09
2022-10-18T21:38:33.071Z,8.03
2022-10-18T21:40:59.668Z,7.96
2022-10-18T21:43:26.348Z,7.91
2022-10-18T21:46:01.916Z,7.86
2022-10-18T21:48:28.318Z,7.81
2022-10-18T21:50:54.847Z,7.78
2022-10-18T21:53:21.759Z,7.71
2022-10-18T21:55:48.299Z,7.72
2022-10-18T21:58:14.957Z,7.68
2022-10-18T22:00:41.336Z,7.64
2022-10-18T22:03:13.254Z,7.63
2022-10-18T22:05:39.915Z,7.62
2022-10-18T22:08:07.060Z,7.61
2022-10-18T22:10:33.628Z,7.60
2022-10-18T22:12:59.975Z,7.61
2022-10-18T22:15:26.318Z,7.61
2022-10-18T22:17:52.696Z,7.60
2022-10-18T22:20:19.071Z,7.58
2022-10-18T22:22:45.375Z,7.57
2022-10-18T22:25:11.687Z,7.54
2022-10-18T22:27:38.508Z,7.52
2022-10-18T22:30:05.439Z,7.50
2022-10-18T22:32:31.745Z,7.52
2022-10-18T22:34:58.069Z,7.54
2022-10-18T22:37:24.437Z,7.53
2022-10-18T22:39:50.753Z,7.54
2022-10-18T22:42:17.087Z,7.49
2022-10-18T22:44:43.407Z,7.43
2022-10-18T22:47:09.811Z,7.41
2022-10-18T22:49:36.115Z,7.36
2022-10-18T22:52:02.452Z,7.28
2022-10-18T22:54:28.808Z,7.26
2022-10-18T22:56:55.132Z,7.23
2022-10-18T22:59:21.439Z,7.22
2022-10-18T23:01:47.752Z,7.20
2022-10-18T23:04:14.109Z,7.17
2022-10-18T23:06:40.465Z,7.16
2022-10-18T23:09:10.075Z,7.16
2022-10-18T23:11:37.196Z,7.19
2022-10-18T23:14:05.423Z,7.21
2022-10-18T23:16:32.111Z,7.20
2022-10-18T23:18:59.130Z,7.23
2022-10-18T23:21:28.067Z,7.23
2022-10-18T23:23:55.443Z,7.17
2022-10-18T23:26:24.308Z,7.09
2022-10-18T23:28:52.337Z,7.08
2022-10-18T23:31:27.679Z,7.03
2022-10-18T23:33:56.441Z,6.97
2022-10-18T23:36:23.694Z,6.90
2022-10-18T23:38:50.454Z,6.87
2022-10-18T23:41:18.306Z,6.82
2022-10-18T23:43:45.087Z,6.79
2022-10-18T23:46:12.173Z,6.74
2022-10-18T23:48:38.772Z,6.67
2022-10-18T23:51:06.077Z,6.67
2022-10-18T23:53:32.661Z,6.62
2022-10-18T23:56:00.250Z,6.57
2022-10-18T23:58:27.519Z,6.56
